Saturday, July 21, 2018, 12:20 AM GMT
Back to Local

CYPQ, Peterborough Airport

Location: , , Canada Lat: 44.233
Local Time: 12:20 AM GMT ( 0:20 GMT) Lon: -78.367
Time Zone: GMT Elev: 626 ft

Show me the last for .
Show Decoded

2018-07-21 00:00 METAR CYPQ 210000Z AUTO 11008G15KT 9SM CLR 26/15 A2994 RMK SLP138 DENSITY ALT
                 2000FT =
2018-07-20 23:00 METAR CYPQ 202300Z AUTO 10012G18KT 070V150 9SM CLR 28/14 A2994 RMK SLP140
                 DENSITY ALT 2100FT =
2018-07-20 22:00 METAR CYPQ 202200Z AUTO 12011G18KT 9SM CLR 28/15 A2995 RMK SLP145 DENSITY ALT
                 2200FT =
2018-07-20 21:00 METAR CYPQ 202100Z AUTO 11010G15KT 080V150 9SM CLR 29/15 A2996 RMK SLP148
                 DENSITY ALT 2200FT =
2018-07-20 20:00 METAR CYPQ 202000Z AUTO 14007G16KT 100V170 9SM CLR 29/15 A2997 RMK SLP150
                 DENSITY ALT 2200FT =
2018-07-20 19:00 METAR CYPQ 201900Z AUTO 15010G17KT 100V170 9SM CLR 29/15 A2998 RMK SLP154
                 DENSITY ALT 2200FT =
2018-07-20 18:00 METAR CYPQ 201800Z AUTO 11010G17KT 090V150 9SM CLR 28/14 A3001 RMK SLP162
                 DENSITY ALT 2100FT =
2018-07-20 17:00 METAR CYPQ 201700Z AUTO 11009G15KT 100V180 9SM CLR 28/14 A3003 RMK SLP169
                 DENSITY ALT 2100FT =
2018-07-20 16:00 METAR CYPQ 201600Z AUTO 12005G15KT 090V190 9SM CLR 28/15 A3004 RMK SLP172
                 DENSITY ALT 2100FT =
2018-07-20 15:00 METAR CYPQ 201500Z AUTO 13005KT 9SM CLR 26/17 A3004 RMK SLP173 DENSITY ALT
                 1900FT =
2018-07-20 14:00 METAR CYPQ 201400Z AUTO 20003KT 140V310 9SM CLR 25/18 A3005 RMK SLP177 DENSITY
                 ALT 1700FT =
2018-07-20 13:00 METAR CYPQ 201300Z AUTO 00000KT 9SM CLR 20/17 A3006 RMK SLP181 DENSITY ALT
                 1100FT =
2018-07-20 12:00 METAR CYPQ 201200Z AUTO 00000KT 9SM CLR 16/14 A3006 RMK SLP181 DENSITY ALT 700FT
                 =
2018-07-20 11:00 METAR CYPQ 201100Z AUTO 00000KT 9SM CLR 11/11 A3006 RMK SLP180 =
2018-07-20 10:09 METAR CYPQ 201009Z AUTO 00000KT 9SM SCT001 09/09 A3005 RMK SLP178 =
2018-07-20 10:01 METAR CYPQ 201001Z AUTO 00000KT 9SM BKN001 09/09 A3005 RMK SLP177 =
2018-07-20 10:00 METAR CYPQ 201000Z AUTO 00000KT 9SM SCT001 09/09 A3005 RMK SLP177 =
2018-07-20 09:47 METAR CYPQ 200947Z AUTO VRB02KT 9SM CLR 09/09 A3005 RMK SLP177 =
2018-07-20 09:45 METAR CYPQ 200945Z AUTO 00000KT 3SM BR CLR 09/09 A3005 RMK SLP176 =
2018-07-20 09:33 METAR CYPQ 200933Z AUTO 00000KT 1 1/4SM BR CLR 09/09 A3005 RMK SLP177 =
2018-07-20 09:32 METAR CYPQ 200932Z AUTO 00000KT 3SM BR CLR 09/09 A3005 RMK SLP177 =
2018-07-20 09:15 METAR CYPQ 200915Z AUTO 00000KT 6SM BR CLR 09/08 A3005 RMK SLP178 =
2018-07-20 09:06 METAR CYPQ 200906Z AUTO 00000KT 5SM BR CLR 09/09 A3005 RMK SLP178 =
2018-07-20 09:00 METAR CYPQ 200900Z AUTO 00000KT 6SM BR CLR 09/09 A3005 RMK SLP178 =
2018-07-20 08:38 METAR CYPQ 200838Z AUTO 00000KT 7SM CLR 09/09 A3005 RMK SLP178 =
2018-07-20 08:37 METAR CYPQ 200837Z AUTO 00000KT 4SM BR CLR 09/09 A3005 RMK SLP178 =
2018-07-20 08:28 METAR CYPQ 200828Z AUTO 00000KT 2 1/2SM BR CLR 09/09 A3005 RMK SLP179 =
2018-07-20 08:27 METAR CYPQ 200827Z AUTO 26002KT 4SM BR CLR 09/09 A3005 RMK SLP179 =
2018-07-20 08:20 METAR CYPQ 200820Z AUTO VRB02KT 9SM CLR 09/09 A3005 RMK SLP179 =
2018-07-20 08:19 METAR CYPQ 200819Z AUTO VRB02KT 4SM BR CLR 09/09 A3005 RMK SLP179 =
2018-07-20 08:18 METAR CYPQ 200818Z AUTO VRB02KT 2 1/2SM BR CLR 09/09 A3005 RMK SLP179 =
2018-07-20 08:17 METAR CYPQ 200817Z AUTO VRB02KT 1 3/4SM BR CLR 09/09 A3005 RMK SLP179 =
2018-07-20 08:08 METAR CYPQ 200808Z AUTO 00000KT 1 1/4SM BR CLR 09/09 A3005 RMK VIS VRB 3/8-3
                 SLP179 =
2018-07-20 08:07 METAR CYPQ 200807Z AUTO 00000KT 1 3/4SM BR CLR 09/09 A3005 RMK VIS VRB 3/8-3
                 SLP179 =
2018-07-20 08:06 METAR CYPQ 200806Z AUTO 00000KT 2 1/2SM BR CLR 09/09 A3005 RMK VIS VRB 1-3
                 SLP179 =
2018-07-20 08:00 METAR CYPQ 200800Z AUTO 00000KT 4SM BR CLR 09/09 A3006 RMK SLP180 =
2018-07-20 07:57 METAR CYPQ 200757Z AUTO 00000KT 4SM BR CLR 09/09 A3006 RMK SLP180 =
2018-07-20 07:06 METAR CYPQ 200706Z AUTO 00000KT 9SM CLR 10/10 A3005 RMK SLP179 =
2018-07-20 07:05 METAR CYPQ 200705Z AUTO 00000KT 4SM BR CLR 10/10 A3005 RMK SLP179 =
2018-07-20 07:00 METAR CYPQ 200700Z AUTO 00000KT 1/2SM FG CLR 10/10 A3005 RMK SLP179 =
2018-07-20 06:50 METAR CYPQ 200650Z AUTO 00000KT 1 1/4SM BR CLR 10/10 A3005 RMK SLP179 =
2018-07-20 06:48 METAR CYPQ 200648Z AUTO 00000KT 1 1/2SM BR CLR 10/10 A3005 RMK SLP179 =
2018-07-20 06:42 METAR CYPQ 200642Z AUTO 00000KT 1 1/4SM BR CLR 10/10 A3005 RMK SLP179 =
2018-07-20 06:41 METAR CYPQ 200641Z AUTO 00000KT 1 1/2SM BR CLR 10/10 A3005 RMK SLP179 =
2018-07-20 06:38 METAR CYPQ 200638Z AUTO 00000KT 1 1/4SM BR CLR 11/11 A3005 RMK SLP179 =
2018-07-20 06:37 METAR CYPQ 200637Z AUTO 00000KT 1 3/4SM BR CLR 10/10 A3005 RMK SLP179 =
2018-07-20 06:35 METAR CYPQ 200635Z AUTO 00000KT 3SM BR CLR 10/10 A3005 RMK SLP179 =
2018-07-20 06:33 METAR CYPQ 200633Z AUTO 00000KT 1 3/4SM BR CLR 11/11 A3005 RMK SLP179 =
2018-07-20 06:23 METAR CYPQ 200623Z AUTO 00000KT 1 1/4SM BR CLR 11/11 A3005 RMK SLP178 =
2018-07-20 06:22 METAR CYPQ 200622Z AUTO 00000KT 2 1/4SM BR CLR 11/10 A3005 RMK SLP178 =
2018-07-20 06:16 METAR CYPQ 200616Z AUTO 00000KT 8SM CLR 10/10 A3005 RMK SLP179 =
2018-07-20 06:07 METAR CYPQ 200607Z AUTO 00000KT 5SM BR CLR 11/10 A3005 RMK SLP179 =
2018-07-20 06:00 METAR CYPQ 200600Z AUTO 00000KT 9SM CLR 11/11 A3005 RMK SLP179 =
2018-07-20 05:55 METAR CYPQ 200555Z AUTO 00000KT 9SM CLR 10/10 A3006 RMK SLP180 =
2018-07-20 05:53 METAR CYPQ 200553Z AUTO 00000KT 3SM BR CLR 10/10 A3006 RMK SLP180 =
2018-07-20 05:52 METAR CYPQ 200552Z AUTO 00000KT 2 1/2SM BR CLR 10/10 A3006 RMK SLP180 =
2018-07-20 05:47 METAR CYPQ 200547Z AUTO 00000KT 1 3/4SM BR CLR 11/11 A3006 RMK SLP180 =
2018-07-20 05:32 METAR CYPQ 200532Z AUTO 00000KT 1 1/4SM BR CLR 11/11 A3005 RMK SLP179 =
2018-07-20 05:28 METAR CYPQ 200528Z AUTO 00000KT 2SM BR CLR 12/11 A3005 RMK SLP179 =
2018-07-20 05:26 METAR CYPQ 200526Z AUTO 00000KT 5SM BR CLR 12/11 A3005 RMK SLP179 =
2018-07-20 05:15 METAR CYPQ 200515Z AUTO 00000KT 9SM CLR 11/11 A3006 RMK SLP181 =
2018-07-20 05:13 METAR CYPQ 200513Z AUTO 00000KT 3SM BR CLR 12/11 A3006 RMK SLP181 =
2018-07-20 05:05 METAR CYPQ 200505Z AUTO 00000KT 2 1/2SM BR CLR 12/12 A3006 RMK SLP181 =
2018-07-20 05:03 METAR CYPQ 200503Z AUTO 00000KT 5SM BR CLR 12/12 A3006 RMK SLP182 =
2018-07-20 05:00 METAR CYPQ 200500Z AUTO 00000KT 9SM CLR 12/12 A3006 RMK SLP182 =
2018-07-20 04:58 METAR CYPQ 200458Z AUTO 00000KT 8SM CLR 12/12 A3006 RMK SLP182 =
2018-07-20 04:49 METAR CYPQ 200449Z AUTO 00000KT 5SM BR CLR 12/12 A3006 RMK SLP182 =
2018-07-20 04:00 METAR CYPQ 200400Z AUTO 00000KT 9SM CLR 13/13 A3006 RMK SLP180 =
2018-07-20 03:00 METAR CYPQ 200300Z AUTO 00000KT 9SM CLR 14/13 A3006 RMK SLP181 =
2018-07-20 02:00 METAR CYPQ 200200Z AUTO 00000KT 9SM CLR 16/14 A3006 RMK SLP181 DENSITY ALT 700FT
                 =
2018-07-20 01:00 METAR CYPQ 200100Z AUTO 17003KT 9SM CLR 19/14 A3006 RMK SLP182 DENSITY ALT
                 1000FT =

Support USWX by starting your Amazon purchase here.